Terminal Aerodrome Forecast
Issued by NWS

Home | Current Version | Previous Version | Text Only | Print | Product List | Glossary On
Versions: 1 2 3 4 5 6 7 8 9 10 11 12 13 14 15 16 17 18 19 20 21 22 23 24 25 26 27
454
FTUS45 KGGW 130528
TAFGDV
TAF
KGDV 130528Z 1306/1406 13007KT P6SM VCSH SCT025 OVC045
      TEMPO 1306/1309 3SM -SN SCT010 OVC025
     FM131400 16004KT 6SM -FZRA SCT030 BKN060
     FM131900 21008KT 4SM -RA OVC025
     FM140200 27011KT P6SM VCSH BKN050
      AMD LTD TO CLD VIS AND WIND=

USA.gov is the U.S. government's official web portal to all federal, state and local government web resources and services.